Time;durP1;ratioP1;P1;durP2;ratioP2;P2;SDS_P1;SDS_P2;PMS_P1;PMS_P2;Temp;Humidity;BMP_temperature;BMP_pressure;BME280_temperature;BME280_humidity;BME280_pressure;Samples;Min_cycle;Max_cycle;Signal;HPM_P1;HPM_P2
2021/06/25 00:02:14;;;;;;;3.97;3.60;;;23.90;50.20;;;;;;4985426;28;20601;-64
2021/06/25 00:04:47;;;;;;;3.53;3.10;;;23.80;50.10;;;;;;4981897;28;20228;-64
2021/06/25 00:07:17;;;;;;;4.00;3.47;;;23.80;50.10;;;;;;4983358;28;20196;-64
2021/06/25 00:09:46;;;;;;;4.40;3.63;;;23.80;50.00;;;;;;4983474;28;20205;-64
2021/06/25 00:12:15;;;;;;;4.13;3.73;;;23.90;50.10;;;;;;4984920;28;20275;-64
2021/06/25 00:14:48;;;;;;;7.40;3.57;;;23.80;50.00;;;;;;4983814;28;20204;-64
2021/06/25 00:17:15;;;;;;;3.77;3.40;;;23.80;50.00;;;;;;4982765;28;20230;-64
2021/06/25 00:19:45;;;;;;;4.43;3.37;;;23.80;50.00;;;;;;4978143;28;20247;-64
2021/06/25 00:22:14;;;;;;;3.67;3.20;;;23.80;49.90;;;;;;4982269;28;20292;-64
2021/06/25 00:24:45;;;;;;;4.97;3.83;;;23.80;49.90;;;;;;4986813;28;20196;-64
2021/06/25 00:27:15;;;;;;;5.23;3.50;;;23.80;49.90;;;;;;4984155;28;20213;-65
2021/06/25 00:29:47;;;;;;;7.80;3.70;;;23.80;50.20;;;;;;4982838;28;20259;-65
2021/06/25 00:32:16;;;;;;;5.67;3.30;;;23.80;50.20;;;;;;4982872;28;20231;-65
2021/06/25 00:34:44;;;;;;;6.70;3.63;;;23.70;49.90;;;;;;4986369;28;20287;-64
2021/06/25 00:37:15;;;;;;;5.90;3.83;;;23.70;49.80;;;;;;4983088;28;20216;-65
2021/06/25 00:39:43;;;;;;;4.13;3.50;;;23.70;49.60;;;;;;4989329;28;20833;-65
2021/06/25 00:42:13;;;;;;;4.40;3.70;;;23.70;49.60;;;;;;4980519;28;20211;-65
2021/06/25 00:44:43;;;;;;;4.57;3.40;;;23.70;49.60;;;;;;4988298;28;20243;-64
2021/06/25 00:47:12;;;;;;;3.93;3.20;;;23.70;49.50;;;;;;4983192;28;20283;-64
2021/06/25 00:49:44;;;;;;;3.80;3.50;;;23.70;49.50;;;;;;4985962;28;20212;-65
2021/06/25 00:52:18;;;;;;;4.10;3.30;;;23.70;49.40;;;;;;4982666;28;20655;-64
2021/06/25 00:54:49;;;;;;;4.63;3.83;;;23.70;49.40;;;;;;4979322;28;20213;-64
2021/06/25 00:57:19;;;;;;;3.80;3.50;;;23.70;49.40;;;;;;4979337;28;20229;-65
2021/06/25 00:59:53;;;;;;;4.03;3.63;;;23.60;49.30;;;;;;4985879;28;20254;-64
2021/06/25 01:02:22;;;;;;;4.43;3.70;;;23.60;49.30;;;;;;4980587;28;20247;-64
2021/06/25 01:04:53;;;;;;;4.10;3.70;;;23.60;49.20;;;;;;4977573;28;20186;-65
2021/06/25 01:07:25;;;;;;;5.53;3.80;;;23.60;49.20;;;;;;4971202;28;20196;-64
2021/06/25 01:09:59;;;;;;;3.93;3.57;;;23.60;49.20;;;;;;4982254;28;20196;-65
2021/06/25 01:12:30;;;;;;;5.07;3.77;;;23.60;49.20;;;;;;4989021;28;20199;-64
2021/06/25 01:14:59;;;;;;;6.47;4.00;;;23.60;49.20;;;;;;4982624;28;20204;-65
2021/06/25 01:17:38;;;;;;;4.77;4.07;;;23.60;49.10;;;;;;4989524;28;20204;-64
2021/06/25 01:20:09;;;;;;;4.30;3.90;;;23.50;49.00;;;;;;4981265;28;20247;-64
2021/06/25 01:22:40;;;;;;;4.50;4.10;;;23.60;49.10;;;;;;4963438;28;20205;-64
2021/06/25 01:25:17;;;;;;;4.83;3.67;;;23.60;49.00;;;;;;4979827;28;20209;-64
2021/06/25 01:27:48;;;;;;;4.10;3.70;;;23.60;49.00;;;;;;4982400;28;20195;-64
2021/06/25 01:30:24;;;;;;;4.53;4.07;;;23.50;48.90;;;;;;4982957;28;20203;-65
2021/06/25 01:33:02;;;;;;;4.73;4.10;;;23.50;48.90;;;;;;4962923;28;20208;-65
2021/06/25 01:35:32;;;;;;;4.87;4.00;;;23.50;48.80;;;;;;4982293;28;20542;-64
2021/06/25 01:38:02;;;;;;;5.00;4.10;;;23.50;48.80;;;;;;4984218;28;20279;-64
2021/06/25 01:40:30;;;;;;;4.57;3.97;;;23.50;48.70;;;;;;4971118;28;20250;-64
2021/06/25 01:43:01;;;;;;;4.37;3.97;;;23.50;48.70;;;;;;4984583;28;20205;-64
2021/06/25 01:45:33;;;;;;;4.90;4.40;;;23.50;48.70;;;;;;4988594;28;20909;-64
2021/06/25 01:48:08;;;;;;;4.23;3.87;;;23.50;48.70;;;;;;4977795;28;20193;-65
2021/06/25 01:50:46;;;;;;;4.90;4.50;;;23.40;48.60;;;;;;4973405;28;20207;-64
2021/06/25 01:53:17;;;;;;;4.90;4.40;;;23.40;48.60;;;;;;4981300;28;20204;-64
2021/06/25 01:55:49;;;;;;;4.80;4.40;;;23.40;48.50;;;;;;4987472;28;20275;-65
2021/06/25 01:58:24;;;;;;;4.60;4.20;;;23.40;48.50;;;;;;4979090;28;20252;-64
2021/06/25 02:01:14;;;;;;;4.87;4.30;;;23.40;48.40;;;;;;4981381;28;20203;-65
2021/06/25 02:03:58;;;;;;;5.33;4.57;;;23.40;48.40;;;;;;4987174;28;20200;-64
2021/06/25 02:06:25;;;;;;;5.17;4.43;;;23.40;48.40;;;;;;4980696;28;20204;-65
2021/06/25 02:08:57;;;;;;;4.40;4.00;;;23.40;48.30;;;;;;4980462;28;20259;-64
2021/06/25 02:11:31;;;;;;;4.87;4.43;;;23.30;48.20;;;;;;4981297;28;20214;-64
2021/06/25 02:13:59;;;;;;;4.93;4.60;;;23.40;48.80;;;;;;4988602;28;20204;-64
2021/06/25 02:16:28;;;;;;;5.33;4.67;;;23.30;48.10;;;;;;4984156;28;20717;-65
2021/06/25 02:19:01;;;;;;;5.97;4.20;;;23.30;48.10;;;;;;4953997;28;1028663;-64
2021/06/25 02:21:31;;;;;;;6.60;5.00;;;23.30;48.00;;;;;;4986922;28;20205;-65
2021/06/25 02:23:58;;;;;;;5.70;4.50;;;23.30;48.00;;;;;;4982413;28;20208;-64
2021/06/25 02:26:42;;;;;;;4.60;4.20;;;23.30;48.00;;;;;;4985205;28;20200;-63
2021/06/25 02:29:12;;;;;;;5.30;4.90;;;23.30;47.90;;;;;;4987650;28;20559;-64
2021/06/25 02:31:42;;;;;;;5.23;4.83;;;23.20;47.80;;;;;;4990603;28;20273;-64
2021/06/25 02:34:13;;;;;;;5.30;4.80;;;23.30;47.80;;;;;;4983592;28;20284;-65
2021/06/25 02:36:42;;;;;;;6.63;4.87;;;23.30;47.80;;;;;;4989328;28;20213;-65
2021/06/25 02:39:13;;;;;;;5.50;4.53;;;23.20;47.70;;;;;;4991400;28;20203;-63
2021/06/25 02:41:43;;;;;;;4.97;4.43;;;23.20;47.70;;;;;;4993689;28;20303;-63
2021/06/25 02:44:13;;;;;;;5.00;4.60;;;23.20;47.70;;;;;;4993009;28;20200;-63
2021/06/25 02:46:42;;;;;;;5.77;5.27;;;23.20;47.70;;;;;;5015185;28;20219;-63
2021/06/25 02:49:16;;;;;;;5.90;5.40;;;23.20;48.30;;;;;;4991000;28;20271;-63
2021/06/25 02:51:44;;;;;;;5.53;5.03;;;23.20;47.60;;;;;;4999111;28;20279;-63
2021/06/25 02:54:16;;;;;;;5.73;5.23;;;23.20;47.60;;;;;;4990475;28;21026;-63
2021/06/25 02:56:50;;;;;;;5.83;5.30;;;23.10;47.60;;;;;;4991860;28;20250;-63
2021/06/25 02:59:20;;;;;;;5.77;5.20;;;23.10;47.60;;;;;;4987885;28;20207;-63
2021/06/25 03:01:47;;;;;;;6.40;5.73;;;23.10;47.50;;;;;;4989620;28;20208;-63
2021/06/25 03:04:14;;;;;;;5.67;5.17;;;23.10;47.50;;;;;;4995874;28;20189;-64
2021/06/25 03:06:55;;;;;;;7.50;5.73;;;23.10;47.50;;;;;;4991200;28;20203;-63
2021/06/25 03:09:23;;;;;;;6.13;5.40;;;23.10;47.50;;;;;;4993887;28;20295;-63
2021/06/25 03:11:54;;;;;;;5.73;5.20;;;23.10;47.60;;;;;;4999257;28;20208;-63
2021/06/25 03:14:23;;;;;;;6.20;5.70;;;23.10;47.50;;;;;;4996081;28;20627;-63
2021/06/25 03:16:55;;;;;;;6.17;5.57;;;23.10;47.50;;;;;;5006790;28;20233;-63
2021/06/25 03:19:25;;;;;;;6.10;5.60;;;23.10;47.60;;;;;;4984168;28;20240;-63
2021/06/25 03:21:56;;;;;;;6.30;5.70;;;23.00;47.50;;;;;;4992887;28;20192;-63
2021/06/25 03:24:27;;;;;;;5.90;5.40;;;23.00;47.50;;;;;;5001290;28;20212;-63
2021/06/25 03:26:55;;;;;;;6.10;5.60;;;23.00;47.50;;;;;;5007688;28;20661;-63
2021/06/25 03:29:26;;;;;;;6.00;5.50;;;23.00;47.50;;;;;;5004481;28;20303;-63
2021/06/25 03:31:54;;;;;;;6.10;5.50;;;23.00;47.50;;;;;;5002348;28;20212;-63
2021/06/25 03:34:26;;;;;;;6.97;5.43;;;23.00;47.50;;;;;;5006173;28;20201;-63
2021/06/25 03:37:08;;;;;;;5.80;5.30;;;23.00;47.40;;;;;;4999616;28;20566;-63
2021/06/25 03:39:37;;;;;;;6.17;5.57;;;23.00;47.40;;;;;;4994124;28;20208;-63
2021/06/25 03:42:08;;;;;;;6.67;5.37;;;23.00;47.40;;;;;;5010949;28;20215;-63
2021/06/25 03:44:37;;;;;;;6.23;5.73;;;23.00;47.40;;;;;;4994562;28;20370;-63
2021/06/25 03:47:04;;;;;;;6.73;5.77;;;22.90;47.40;;;;;;4988473;28;20216;-63
2021/06/25 03:49:32;;;;;;;5.90;5.40;;;23.00;47.40;;;;;;4986853;28;20294;-63
2021/06/25 03:51:59;;;;;;;5.83;5.20;;;22.90;47.40;;;;;;4980682;28;20199;-63
2021/06/25 03:54:31;;;;;;;6.27;5.67;;;22.90;47.40;;;;;;4985692;28;20278;-63
2021/06/25 03:57:03;;;;;;;5.73;5.17;;;22.90;47.40;;;;;;4992283;28;20204;-65
2021/06/25 03:59:32;;;;;;;5.70;5.20;;;23.00;47.50;;;;;;4984421;28;20196;-65
2021/06/25 04:02:03;;;;;;;5.57;5.07;;;23.00;47.50;;;;;;4980556;28;20331;-65
2021/06/25 04:04:32;;;;;;;5.80;5.30;;;22.90;47.50;;;;;;4984480;28;20224;-66
2021/06/25 04:07:00;;;;;;;5.80;5.30;;;22.90;47.40;;;;;;4982631;28;20216;-67
2021/06/25 04:09:30;;;;;;;5.80;5.30;;;22.90;47.40;;;;;;4984933;28;20232;-67
2021/06/25 04:12:00;;;;;;;6.23;5.73;;;22.90;47.40;;;;;;4982851;28;20208;-66
2021/06/25 04:14:29;;;;;;;5.90;4.97;;;22.90;47.50;;;;;;4990931;28;20203;-66
2021/06/25 04:16:57;;;;;;;5.43;4.93;;;22.90;47.50;;;;;;4989697;28;20602;-66
2021/06/25 04:19:26;;;;;;;5.90;5.40;;;22.90;47.50;;;;;;4989085;28;20244;-66
2021/06/25 04:21:55;;;;;;;6.53;5.50;;;23.00;47.70;;;;;;4987562;28;20645;-65
2021/06/25 04:24:27;;;;;;;6.47;5.40;;;22.90;47.70;;;;;;4981311;28;20197;-65
2021/06/25 04:26:57;;;;;;;5.90;5.47;;;22.90;47.80;;;;;;4981202;28;20234;-64
2021/06/25 04:29:29;;;;;;;6.23;5.73;;;22.90;47.90;;;;;;4988944;28;20208;-64
2021/06/25 04:31:57;;;;;;;6.57;5.83;;;22.90;48.00;;;;;;4986479;28;20208;-65
2021/06/25 04:34:28;;;;;;;6.80;6.23;;;22.90;48.10;;;;;;4992147;28;20201;-65
2021/06/25 04:36:58;;;;;;;7.37;6.33;;;22.90;48.20;;;;;;4979304;28;20232;-65
2021/06/25 04:39:25;;;;;;;7.10;6.40;;;22.90;48.40;;;;;;4989268;28;20202;-64
2021/06/25 04:41:55;;;;;;;7.93;7.23;;;22.90;48.50;;;;;;4968785;28;20539;-63
2021/06/25 04:44:26;;;;;;;9.97;8.17;;;22.90;48.70;;;;;;4979374;28;20205;-63
2021/06/25 04:46:57;;;;;;;9.37;8.57;;;22.90;48.80;;;;;;4980696;28;20201;-66
2021/06/25 04:49:27;;;;;;;8.97;8.07;;;22.90;48.80;;;;;;4983684;28;20216;-66
2021/06/25 04:52:01;;;;;;;9.13;8.37;;;22.80;48.80;;;;;;4985722;28;20227;-65
2021/06/25 04:54:31;;;;;;;9.70;8.70;;;22.80;48.80;;;;;;4987491;28;20286;-65
2021/06/25 04:56:58;;;;;;;9.37;8.03;;;22.90;48.90;;;;;;4987906;28;20228;-65
2021/06/25 04:59:24;;;;;;;9.57;8.73;;;22.90;49.00;;;;;;4984962;28;20213;-65
2021/06/25 05:02:01;;;;;;;9.67;8.80;;;22.80;49.00;;;;;;4984935;28;20207;-64
2021/06/25 05:04:31;;;;;;;10.47;9.40;;;22.90;49.10;;;;;;4985917;28;20772;-64
2021/06/25 05:07:03;;;;;;;10.27;9.17;;;22.80;49.10;;;;;;4983688;28;20635;-64
2021/06/25 05:09:32;;;;;;;12.67;11.40;;;22.80;49.20;;;;;;4989187;28;20534;-65
2021/06/25 05:12:04;;;;;;;13.20;11.80;;;22.80;49.90;;;;;;4994594;28;20204;-64
2021/06/25 05:14:31;;;;;;;16.17;12.07;;;22.80;50.30;;;;;;4984948;28;20228;-64
2021/06/25 05:17:01;;;;;;;15.83;13.33;;;22.80;50.20;;;;;;4995094;28;20234;-65
2021/06/25 05:19:32;;;;;;;15.73;13.40;;;22.80;49.90;;;;;;4985315;28;20634;-65
2021/06/25 05:22:01;;;;;;;15.00;13.67;;;22.80;49.80;;;;;;4979272;28;20210;-62
2021/06/25 05:24:38;;;;;;;15.00;13.53;;;22.70;49.70;;;;;;4984301;28;20200;-65
2021/06/25 05:27:08;;;;;;;17.27;15.57;;;22.70;49.80;;;;;;4992011;28;20208;-66
2021/06/25 05:29:38;;;;;;;17.20;15.50;;;22.70;49.80;;;;;;4984784;28;20225;-66
2021/06/25 05:32:10;;;;;;;34.07;20.30;;;22.70;49.90;;;;;;4989342;28;20291;-66
2021/06/25 05:34:41;;;;;;;33.30;21.37;;;22.70;51.30;;;;;;4977180;28;20720;-67
2021/06/25 05:37:12;;;;;;;26.60;19.33;;;22.60;52.70;;;;;;4980978;28;20234;-63
2021/06/25 05:39:41;;;;;;;26.33;18.53;;;22.70;52.40;;;;;;4968939;28;20197;-63
2021/06/25 05:42:09;;;;;;;19.90;17.00;;;22.60;51.80;;;;;;4977821;28;20200;-64
2021/06/25 05:44:40;;;;;;;19.60;17.73;;;22.60;51.80;;;;;;4974583;28;20449;-65
2021/06/25 05:47:07;;;;;;;20.67;18.27;;;22.60;51.60;;;;;;4980416;28;20209;-63
2021/06/25 05:49:38;;;;;;;20.17;18.17;;;22.60;51.20;;;;;;4991425;28;20856;-64
2021/06/25 05:52:08;;;;;;;21.30;19.10;;;22.60;50.90;;;;;;4982038;28;20202;-65
2021/06/25 05:54:39;;;;;;;21.57;19.30;;;22.60;50.90;;;;;;4983246;28;20209;-66
2021/06/25 05:57:10;;;;;;;20.93;18.90;;;22.60;50.90;;;;;;5009249;28;20220;-67
2021/06/25 05:59:41;;;;;;;21.50;19.33;;;22.60;51.00;;;;;;5011638;28;20207;-66
2021/06/25 06:02:14;;;;;;;21.53;19.33;;;22.60;51.10;;;;;;4982226;28;20201;-64
2021/06/25 06:04:43;;;;;;;21.87;19.67;;;22.50;51.00;;;;;;4982057;28;20210;-65
2021/06/25 06:07:13;;;;;;;22.30;20.10;;;22.50;51.40;;;;;;4984864;28;20319;-63
2021/06/25 06:09:44;;;;;;;20.30;18.30;;;22.50;51.40;;;;;;4984700;28;20224;-63
2021/06/25 06:12:12;;;;;;;21.23;19.17;;;22.50;51.30;;;;;;4984891;28;20211;-64
2021/06/25 06:14:43;;;;;;;21.97;19.77;;;22.50;51.20;;;;;;4983050;28;20528;-64
2021/06/25 06:20:53;;;;;;;19.83;17.97;;;22.50;51.00;;;;;;5018177;28;20220;-66
2021/06/25 06:32:01;;;;;;;18.73;17.03;;;22.50;50.90;;;;;;4990400;28;20658;-65
2021/06/25 06:34:36;;;;;;;17.73;15.93;;;22.50;50.70;;;;;;4978477;28;20205;-67
2021/06/25 06:37:03;;;;;;;38.50;19.60;;;22.50;50.60;;;;;;4980397;28;20216;-67
2021/06/25 06:39:33;;;;;;;51.03;23.87;;;22.50;51.60;;;;;;4979958;28;20199;-67
2021/06/25 06:42:04;;;;;;;37.58;19.30;;;22.50;53.40;;;;;;4991386;28;20373;-69
2021/06/25 06:44:38;;;;;;;27.97;18.07;;;22.60;52.80;;;;;;4986752;28;20208;-70
2021/06/25 06:47:09;;;;;;;21.17;16.50;;;22.60;51.90;;;;;;4989656;28;20240;-68
2021/06/25 06:49:39;;;;;;;19.60;15.70;;;22.60;51.40;;;;;;4983250;28;20638;-68
2021/06/25 06:52:06;;;;;;;17.23;15.07;;;22.70;51.30;;;;;;4992797;28;20254;-67
2021/06/25 06:54:34;;;;;;;21.17;15.50;;;22.80;51.00;;;;;;4987915;28;20197;-68
2021/06/25 06:57:03;;;;;;;19.37;15.03;;;22.80;50.80;;;;;;4991234;28;20757;-67
2021/06/25 06:59:34;;;;;;;17.13;14.40;;;22.90;50.60;;;;;;5001873;28;20194;-66
2021/06/25 07:02:06;;;;;;;15.30;13.67;;;22.90;50.60;;;;;;4982052;28;20197;-66
2021/06/25 07:04:41;;;;;;;15.10;13.50;;;22.90;50.40;;;;;;4985162;28;20223;-66
2021/06/25 07:07:09;;;;;;;16.03;14.33;;;23.00;50.60;;;;;;4989321;28;20234;-66
2021/06/25 07:09:39;;;;;;;16.67;13.70;;;23.00;50.30;;;;;;4987686;28;20865;-64
2021/06/25 07:12:06;;;;;;;15.37;13.73;;;23.00;50.30;;;;;;4992576;28;20239;-67
2021/06/25 07:14:36;;;;;;;18.17;13.70;;;23.10;50.30;;;;;;4982498;28;20280;-69
2021/06/25 07:17:05;;;;;;;14.80;13.03;;;23.10;50.30;;;;;;4982749;28;20869;-70
2021/06/25 07:19:35;;;;;;;15.43;13.93;;;23.10;50.80;;;;;;4982668;28;20193;-69
2021/06/25 07:22:10;;;;;;;15.60;14.10;;;23.10;50.20;;;;;;4987855;28;20188;-68
2021/06/25 07:24:40;;;;;;;14.57;13.07;;;23.10;50.10;;;;;;4983808;28;20208;-67
2021/06/25 07:27:09;;;;;;;14.77;13.30;;;23.20;50.00;;;;;;4982473;28;20209;-69
2021/06/25 07:29:37;;;;;;;14.73;13.27;;;23.20;49.80;;;;;;4987233;28;20203;-70
2021/06/25 07:32:06;;;;;;;16.20;14.50;;;23.30;50.00;;;;;;4986562;28;20197;-67
2021/06/25 07:34:36;;;;;;;15.77;14.23;;;23.30;50.00;;;;;;4974346;28;20232;-68
2021/06/25 07:37:06;;;;;;;14.43;13.00;;;23.30;50.00;;;;;;4982525;28;20536;-68
2021/06/25 07:39:35;;;;;;;14.23;12.83;;;23.40;49.80;;;;;;4985823;28;20196;-70
2021/06/25 07:42:04;;;;;;;16.27;12.87;;;23.30;49.80;;;;;;4988446;28;20199;-68
2021/06/25 07:44:34;;;;;;;13.83;12.30;;;23.40;49.70;;;;;;4985738;28;20796;-67
2021/06/25 07:47:03;;;;;;;13.87;12.47;;;23.40;49.70;;;;;;4984403;28;20197;-69
2021/06/25 07:49:36;;;;;;;14.43;13.07;;;23.40;49.40;;;;;;4983766;28;20192;-70
2021/06/25 07:52:07;;;;;;;14.20;12.73;;;23.50;49.50;;;;;;4983546;28;20507;-69
2021/06/25 07:54:35;;;;;;;13.63;12.33;;;23.40;49.50;;;;;;4985133;28;20204;-68
2021/06/25 07:57:05;;;;;;;12.77;11.57;;;23.50;49.40;;;;;;4981319;28;20301;-73
2021/06/25 07:59:38;;;;;;;13.57;11.90;;;23.50;49.50;;;;;;4971427;28;20287;-71
2021/06/25 08:02:07;;;;;;;13.67;11.17;;;23.50;49.50;;;;;;4981976;28;20196;-71
2021/06/25 08:04:37;;;;;;;12.27;10.97;;;23.50;49.50;;;;;;4980498;28;20201;-71
2021/06/25 08:07:06;;;;;;;12.53;11.23;;;23.50;49.30;;;;;;4983364;28;20193;-71
2021/06/25 08:09:37;;;;;;;13.57;11.93;;;23.60;49.20;;;;;;4984578;28;20627;-71
2021/06/25 08:12:05;;;;;;;13.40;12.00;;;23.60;49.10;;;;;;4983336;28;20549;-68
2021/06/25 08:14:36;;;;;;;12.27;11.13;;;23.60;49.20;;;;;;4990215;28;20205;-68
2021/06/25 08:17:15;;;;;;;13.00;11.60;;;23.60;49.10;;;;;;4984131;28;20196;-71
2021/06/25 08:19:46;;;;;;;12.07;10.87;;;23.70;49.10;;;;;;4980168;28;20635;-69
2021/06/25 08:22:14;;;;;;;11.43;10.10;;;23.70;49.00;;;;;;4993416;28;20196;-70
2021/06/25 08:24:42;;;;;;;10.63;9.53;;;23.70;49.30;;;;;;4989685;28;20212;-68
2021/06/25 08:27:19;;;;;;;11.57;10.47;;;23.70;49.30;;;;;;4979714;28;20209;-69
2021/06/25 08:29:50;;;;;;;13.00;11.67;;;23.80;49.20;;;;;;4986907;28;20227;-70
2021/06/25 08:32:18;;;;;;;11.10;10.13;;;23.80;49.20;;;;;;4979899;28;20208;-69
2021/06/25 08:34:48;;;;;;;11.50;10.50;;;23.90;49.10;;;;;;4984873;28;20208;-67
2021/06/25 08:37:18;;;;;;;11.97;10.70;;;23.90;48.80;;;;;;4985795;28;20561;-66
2021/06/25 08:39:47;;;;;;;11.43;10.23;;;23.90;48.60;;;;;;4986886;28;20622;-70
2021/06/25 08:42:16;;;;;;;11.23;10.23;;;23.90;48.60;;;;;;4987825;28;20200;-68
2021/06/25 08:44:47;;;;;;;11.13;10.13;;;23.90;48.70;;;;;;4983354;28;20641;-69
2021/06/25 08:47:17;;;;;;;11.43;10.27;;;23.90;48.60;;;;;;4989195;28;20211;-71
2021/06/25 08:49:48;;;;;;;11.63;10.17;;;23.90;48.50;;;;;;4989817;28;20275;-68
2021/06/25 08:52:17;;;;;;;11.37;10.20;;;23.90;48.20;;;;;;4991131;28;20215;-68
2021/06/25 08:54:45;;;;;;;11.23;10.13;;;24.00;48.60;;;;;;4996002;28;20196;-67
2021/06/25 08:57:17;;;;;;;10.57;9.57;;;23.90;48.20;;;;;;4983946;28;20657;-68
2021/06/25 08:59:46;;;;;;;12.17;9.03;;;23.90;48.20;;;;;;4990800;28;20215;-68
2021/06/25 09:02:16;;;;;;;9.50;8.60;;;24.00;48.20;;;;;;4979448;28;20228;-69
2021/06/25 09:04:49;;;;;;;9.40;8.50;;;24.00;48.20;;;;;;4986060;28;20200;-70
2021/06/25 09:07:20;;;;;;;9.03;8.23;;;24.00;48.20;;;;;;4982733;28;20272;-68
2021/06/25 09:09:49;;;;;;;9.90;9.00;;;24.00;48.10;;;;;;4989496;28;20258;-69
2021/06/25 09:12:23;;;;;;;10.00;8.90;;;24.10;48.00;;;;;;4986281;28;20189;-70
2021/06/25 09:15:11;;;;;;;8.97;8.10;;;24.10;48.00;;;;;;4979592;28;20185;-69
2021/06/25 09:18:05;;;;;;;9.47;8.57;;;24.10;47.70;;;;;;4982171;28;20209;-67
2021/06/25 09:20:45;;;;;;;8.70;7.83;;;24.20;47.60;;;;;;4986752;28;20221;-67
2021/06/25 09:23:38;;;;;;;8.70;7.57;;;24.20;47.60;;;;;;4998871;28;20207;-69
2021/06/25 09:26:31;;;;;;;9.60;8.63;;;24.20;47.40;;;;;;4977896;28;20290;-70
2021/06/25 09:29:22;;;;;;;10.87;9.10;;;24.20;47.10;;;;;;4982248;28;20215;-70
2021/06/25 09:32:03;;;;;;;14.30;8.80;;;24.30;47.10;;;;;;4977777;28;20243;-70
2021/06/25 09:34:52;;;;;;;9.03;8.23;;;24.30;46.90;;;;;;4982004;28;20227;-68
2021/06/25 09:37:28;;;;;;;9.40;8.43;;;24.30;46.90;;;;;;4983744;28;20295;-69
2021/06/25 09:40:08;;;;;;;9.57;8.63;;;24.30;46.70;;;;;;4986532;28;20564;-70
2021/06/25 09:42:39;;;;;;;9.10;8.20;;;24.30;46.60;;;;;;4977932;28;20754;-70
2021/06/25 09:45:15;;;;;;;9.20;8.33;;;24.30;46.70;;;;;;4982440;28;20199;-68
2021/06/25 09:47:53;;;;;;;9.73;8.40;;;24.40;47.40;;;;;;4982451;28;20245;-68
2021/06/25 09:50:22;;;;;;;10.77;8.60;;;24.40;46.70;;;;;;4985548;28;20201;-65
2021/06/25 09:52:59;;;;;;;7.90;7.10;;;24.40;46.70;;;;;;4979988;28;20227;-61
2021/06/25 09:55:48;;;;;;;10.10;7.97;;;24.40;46.90;;;;;;4980115;28;20232;-62
2021/06/25 09:58:40;;;;;;;16.37;7.33;;;24.40;46.80;;;;;;4984935;28;20212;-61
2021/06/25 10:01:26;;;;;;;7.90;7.10;;;24.40;47.90;;;;;;4985436;28;20207;-66
2021/06/25 10:04:01;;;;;;;8.97;7.20;;;24.40;49.70;;;;;;4979281;28;20819;-68
2021/06/25 10:06:43;;;;;;;8.33;7.03;;;24.40;51.00;;;;;;4975377;28;20292;-68
2021/06/25 10:09:13;;;;;;;7.53;6.77;;;24.50;52.00;;;;;;4978197;28;20224;-67
2021/06/25 10:11:50;;;;;;;8.40;6.57;;;24.40;51.80;;;;;;4980015;28;20223;-67
2021/06/25 10:14:20;;;;;;;15.60;6.70;;;24.50;51.40;;;;;;4994261;28;20580;-68
2021/06/25 10:16:57;;;;;;;7.07;6.50;;;24.50;50.60;;;;;;4988959;28;20212;-67
2021/06/25 10:19:28;;;;;;;6.77;6.17;;;24.50;51.90;;;;;;4986853;28;20232;-67
2021/06/25 10:22:02;;;;;;;7.67;6.97;;;24.50;52.70;;;;;;4986625;28;20228;-67
2021/06/25 10:24:36;;;;;;;6.63;6.13;;;24.50;52.50;;;;;;4986072;28;20524;-67
2021/06/25 10:27:08;;;;;;;7.40;6.70;;;24.40;53.60;;;;;;4995988;28;20208;-65
2021/06/25 10:29:41;;;;;;;6.40;5.87;;;24.40;52.90;;;;;;5004973;28;20227;-65
2021/06/25 10:32:11;;;;;;;8.00;6.87;;;24.40;53.90;;;;;;4989277;28;20216;-64
2021/06/25 10:34:42;;;;;;;8.43;6.57;;;24.40;53.30;;;;;;4990909;28;20211;-63
2021/06/25 10:37:27;;;;;;;8.27;7.50;;;24.40;53.80;;;;;;4986895;28;20199;-67
2021/06/25 10:39:58;;;;;;;8.23;7.53;;;24.40;53.10;;;;;;4989064;28;20225;-66
2021/06/25 10:42:46;;;;;;;8.80;8.07;;;24.40;50.10;;;;;;4988911;28;20263;-67
2021/06/25 10:45:36;;;;;;;8.07;7.27;;;24.40;49.40;;;;;;4985429;28;20279;-68
2021/06/25 10:48:07;;;;;;;7.53;6.83;;;24.40;51.80;;;;;;4987915;28;20200;-68
2021/06/25 10:51:00;;;;;;;8.20;6.57;;;24.40;54.60;;;;;;4981940;28;20208;-65
2021/06/25 10:53:30;;;;;;;6.40;5.90;;;24.30;54.20;;;;;;4982104;28;20205;-64
2021/06/25 10:56:05;;;;;;;7.50;6.80;;;24.30;54.20;;;;;;4984078;28;20218;-65
2021/06/25 10:58:37;;;;;;;7.40;6.40;;;24.30;54.40;;;;;;4975858;28;20240;-70
2021/06/25 11:01:09;;;;;;;7.07;5.90;;;24.20;54.20;;;;;;4983827;28;20268;-70
2021/06/25 11:03:45;;;;;;;6.67;6.07;;;24.30;54.70;;;;;;4984774;28;20224;-71
2021/06/25 11:06:34;;;;;;;7.30;6.00;;;24.30;54.90;;;;;;4979141;28;20206;-69
2021/06/25 11:09:08;;;;;;;10.13;7.10;;;24.40;52.70;;;;;;4982919;28;20198;-69
2021/06/25 11:11:37;;;;;;;7.50;6.80;;;24.50;53.80;;;;;;4991893;28;20323;-69
2021/06/25 11:14:26;;;;;;;6.87;6.30;;;24.50;53.60;;;;;;4983711;28;20292;-69
2021/06/25 11:16:53;;;;;;;6.77;6.23;;;24.60;53.40;;;;;;4984080;28;20207;-72
2021/06/25 11:19:40;;;;;;;7.40;6.70;;;24.60;54.40;;;;;;4981803;28;20224;-70
2021/06/25 11:22:38;;;;;;;8.20;6.97;;;24.60;54.70;;;;;;4987189;28;20692;-69
2021/06/25 11:25:31;;;;;;;6.90;6.40;;;24.60;54.50;;;;;;4982340;28;20730;-70
2021/06/25 11:28:59;;;;;;;8.17;7.37;;;24.60;54.80;;;;;;4979407;28;20283;-72
2021/06/25 11:31:12;;;;;;;7.93;7.23;;;24.70;53.70;;;;;;4991135;28;20218;-74
2021/06/25 11:33:49;;;;;;;8.80;7.90;;;24.70;52.10;;;;;;4983206;28;20274;-72
2021/06/25 11:36:54;;;;;;;9.43;8.13;;;24.80;50.20;;;;;;4971639;28;20253;-73
2021/06/25 11:39:35;;;;;;;8.20;7.47;;;24.90;49.30;;;;;;4984896;28;20229;-69
2021/06/25 11:42:09;;;;;;;7.70;6.80;;;24.90;50.80;;;;;;4985552;28;20287;-67
2021/06/25 11:44:48;;;;;;;8.17;6.63;;;24.90;51.50;;;;;;4979622;28;20204;-67
2021/06/25 11:47:23;;;;;;;8.03;7.33;;;24.90;51.90;;;;;;5000493;28;20224;-66
2021/06/25 11:50:01;;;;;;;7.73;6.97;;;25.00;49.30;;;;;;4987947;28;20212;-66
2021/06/25 11:52:33;;;;;;;7.70;7.00;;;25.00;49.20;;;;;;4977805;28;20218;-66
2021/06/25 11:55:05;;;;;;;13.93;7.23;;;25.00;49.00;;;;;;4978849;28;20204;-66
2021/06/25 11:57:36;;;;;;;7.70;6.37;;;25.00;48.50;;;;;;4983831;28;20212;-66
2021/06/25 12:00:06;;;;;;;13.73;6.47;;;25.00;49.50;;;;;;4983051;28;20209;-68
2021/06/25 12:02:46;;;;;;;7.67;6.93;;;25.10;49.80;;;;;;4986527;28;20201;-69
2021/06/25 12:05:29;;;;;;;7.97;6.97;;;25.10;49.90;;;;;;4984976;28;20581;-73
2021/06/25 12:08:09;;;;;;;7.97;7.13;;;25.10;49.20;;;;;;4980505;28;20208;-70
2021/06/25 12:10:39;;;;;;;9.13;7.00;;;25.20;47.70;;;;;;4993446;28;20599;-69
2021/06/25 12:13:09;;;;;;;8.00;6.90;;;25.20;48.00;;;;;;4984463;28;20690;-70
2021/06/25 12:15:46;;;;;;;8.17;7.33;;;25.20;49.30;;;;;;4985865;28;20208;-69
2021/06/25 12:18:21;;;;;;;7.23;6.50;;;25.20;46.90;;;;;;4982982;28;20208;-72
2021/06/25 12:20:52;;;;;;;7.13;6.43;;;25.30;48.20;;;;;;4985943;28;20576;-71
2021/06/25 12:23:22;;;;;;;7.00;6.40;;;25.30;49.70;;;;;;4989453;28;20240;-70
2021/06/25 12:25:52;;;;;;;7.00;6.27;;;25.30;47.50;;;;;;4984578;28;20618;-70
2021/06/25 12:28:24;;;;;;;6.87;6.27;;;25.30;48.60;;;;;;4987980;28;20197;-71
2021/06/25 12:30:59;;;;;;;7.17;6.47;;;25.30;51.50;;;;;;4991002;28;20271;-72
2021/06/25 12:33:34;;;;;;;5.97;5.47;;;25.30;50.90;;;;;;4994501;28;20271;-66
2021/06/25 12:36:01;;;;;;;6.60;6.00;;;25.20;50.80;;;;;;4997565;28;20193;-72
2021/06/25 12:38:32;;;;;;;6.80;6.20;;;25.30;48.70;;;;;;5003012;28;20199;-69
2021/06/25 12:41:09;;;;;;;6.97;6.23;;;25.40;48.50;;;;;;4993458;28;20196;-69
2021/06/25 12:43:45;;;;;;;6.60;6.00;;;25.40;50.10;;;;;;4987918;28;20211;-69
2021/06/25 12:46:14;;;;;;;7.27;6.53;;;25.40;48.90;;;;;;4992789;28;20204;-70
2021/06/25 12:48:45;;;;;;;7.27;6.37;;;25.40;47.50;;;;;;4985486;28;20941;-73
2021/06/25 12:51:18;;;;;;;7.43;6.73;;;25.40;46.70;;;;;;4987232;28;20258;-72
2021/06/25 12:53:58;;;;;;;6.53;5.97;;;25.50;46.40;;;;;;4984652;28;20201;-71
2021/06/25 12:56:44;;;;;;;6.67;5.70;;;25.50;46.50;;;;;;4972769;28;20274;-71
2021/06/25 12:59:18;;;;;;;8.10;6.37;;;25.50;46.60;;;;;;4985166;28;20235;-73
2021/06/25 13:01:51;;;;;;;6.40;5.90;;;25.50;49.20;;;;;;4987856;28;20279;-72
2021/06/25 13:04:29;;;;;;;6.50;5.90;;;25.50;48.40;;;;;;4985957;28;20606;-67
2021/06/25 13:07:07;;;;;;;7.40;5.73;;;25.50;49.60;;;;;;4983152;28;20212;-68
2021/06/25 13:09:39;;;;;;;6.53;5.77;;;25.50;51.10;;;;;;4979258;28;20197;-67
2021/06/25 13:12:22;;;;;;;7.40;6.10;;;25.40;49.20;;;;;;4982630;28;20196;-66
2021/06/25 13:14:56;;;;;;;6.00;5.50;;;25.40;48.80;;;;;;4982169;28;20210;-66
2021/06/25 13:17:26;;;;;;;7.10;6.40;;;25.40;51.50;;;;;;4971621;28;20825;-66
2021/06/25 13:20:29;;;;;;;5.83;5.33;;;25.40;50.10;;;;;;4985331;28;20255;-67
2021/06/25 13:23:21;;;;;;;6.40;5.70;;;25.40;51.60;;;;;;4986800;28;20281;-66